Time;durP1;ratioP1;P1;durP2;ratioP2;P2;SDS_P1;SDS_P2;PMS_P1;PMS_P2;Temp;Humidity;BMP_temperature;BMP_pressure;BME280_temperature;BME280_humidity;BME280_pressure;Samples;Min_cycle;Max_cycle;Signal;HPM_P1;HPM_P2
2023/05/25 00:01:35;;;;;;;14.03;5.73;;;11.70;99.90;;;;;;5118107;27;20894;-75
2023/05/25 00:04:04;;;;;;;13.25;5.50;;;11.70;99.90;;;;;;5115231;27;20430;-75
2023/05/25 00:06:31;;;;;;;15.30;5.53;;;11.70;99.90;;;;;;5116788;27;20483;-74
2023/05/25 00:08:57;;;;;;;14.32;5.50;;;11.70;99.90;;;;;;5116935;27;21220;-75
2023/05/25 00:11:23;;;;;;;12.38;5.03;;;11.70;99.90;;;;;;5118982;27;20401;-74
2023/05/25 00:13:50;;;;;;;14.60;5.68;;;11.70;99.90;;;;;;5123060;27;20410;-75
2023/05/25 00:16:16;;;;;;;13.07;5.30;;;11.60;99.90;;;;;;5119953;27;20404;-75
2023/05/25 00:18:42;;;;;;;12.47;5.27;;;11.60;99.90;;;;;;5124537;27;20768;-75
2023/05/25 00:21:09;;;;;;;14.50;5.45;;;11.60;99.90;;;;;;5119855;27;20408;-75
2023/05/25 00:23:35;;;;;;;14.52;4.88;;;11.50;99.90;;;;;;5122304;27;20505;-75
2023/05/25 00:26:02;;;;;;;12.88;4.68;;;11.50;99.90;;;;;;5109652;27;20770;-74
2023/05/25 00:28:28;;;;;;;14.15;5.10;;;11.50;99.90;;;;;;5124606;27;20402;-74
2023/05/25 00:30:53;;;;;;;10.93;4.50;;;11.50;99.90;;;;;;5119166;27;20397;-74
2023/05/25 00:33:19;;;;;;;14.03;4.80;;;11.50;99.90;;;;;;5124237;27;20447;-75
2023/05/25 00:35:45;;;;;;;13.35;4.60;;;11.40;99.90;;;;;;5109566;27;20410;-75
2023/05/25 00:38:16;;;;;;;14.13;4.70;;;11.30;99.90;;;;;;5116007;27;20408;-75
2023/05/25 00:40:42;;;;;;;13.17;4.90;;;11.40;99.90;;;;;;5116777;27;20438;-75
2023/05/25 00:43:08;;;;;;;13.45;4.90;;;11.30;99.90;;;;;;5106283;28;20461;-75
2023/05/25 00:45:34;;;;;;;11.80;4.50;;;11.30;99.90;;;;;;5118856;27;20499;-75
2023/05/25 00:48:00;;;;;;;12.52;4.93;;;11.30;99.90;;;;;;5124475;27;20991;-75
2023/05/25 00:50:39;;;;;;;13.43;4.50;;;11.30;99.90;;;;;;5103009;27;21245;-74
2023/05/25 00:53:05;;;;;;;15.02;4.80;;;11.20;99.90;;;;;;5116748;27;20433;-75
2023/05/25 00:55:37;;;;;;;14.48;4.97;;;11.20;99.90;;;;;;5121422;27;20465;-75
2023/05/25 00:58:03;;;;;;;14.63;5.05;;;11.20;99.90;;;;;;5102824;27;20410;-75
2023/05/25 01:00:31;;;;;;;16.35;4.93;;;11.10;99.90;;;;;;5121556;27;20402;-74
2023/05/25 01:02:58;;;;;;;15.18;5.15;;;11.10;99.90;;;;;;5120887;27;20847;-75
2023/05/25 01:05:29;;;;;;;16.50;4.87;;;11.20;99.90;;;;;;5121865;27;20984;-74
2023/05/25 01:08:00;;;;;;;13.65;5.32;;;11.10;99.90;;;;;;5117568;27;20918;-75
2023/05/25 01:10:31;;;;;;;13.02;5.18;;;11.10;99.90;;;;;;5104716;27;20490;-75
2023/05/25 01:13:00;;;;;;;12.77;4.45;;;11.10;99.90;;;;;;5099963;28;20404;-75
2023/05/25 01:15:28;;;;;;;15.70;5.30;;;11.10;99.90;;;;;;5113453;27;20507;-75
2023/05/25 01:17:58;;;;;;;12.70;5.30;;;11.00;99.90;;;;;;5118157;27;20401;-75
2023/05/25 01:20:28;;;;;;;11.10;5.18;;;11.00;99.90;;;;;;5123655;27;20504;-74
2023/05/25 01:22:59;;;;;;;17.48;5.70;;;11.00;99.90;;;;;;5101820;28;20404;-75
2023/05/25 01:25:33;;;;;;;14.82;5.70;;;10.90;99.90;;;;;;5114636;27;20441;-75
2023/05/25 01:28:23;;;;;;;14.60;5.30;;;10.90;99.90;;;;;;5102812;27;20414;-75
2023/05/25 01:30:49;;;;;;;14.88;6.07;;;10.90;99.90;;;;;;5118766;27;20454;-75
2023/05/25 01:33:17;;;;;;;14.68;5.50;;;10.90;99.90;;;;;;5113468;28;20479;-75
2023/05/25 01:35:45;;;;;;;12.93;5.50;;;10.80;99.90;;;;;;5106954;28;20966;-75
2023/05/25 01:38:11;;;;;;;15.77;5.93;;;10.90;99.90;;;;;;5121851;27;20671;-75
2023/05/25 01:40:37;;;;;;;13.05;5.60;;;10.80;99.90;;;;;;5115497;28;20414;-75
2023/05/25 01:43:03;;;;;;;15.48;5.95;;;10.80;99.90;;;;;;5106762;28;20403;-75
2023/05/25 01:45:31;;;;;;;14.18;5.75;;;10.80;99.90;;;;;;5106787;28;20424;-74
2023/05/25 01:48:13;;;;;;;15.27;6.53;;;10.80;99.90;;;;;;5106734;28;20407;-75
2023/05/25 01:50:41;;;;;;;13.45;5.90;;;10.70;99.90;;;;;;5104085;28;20414;-75
2023/05/25 01:53:17;;;;;;;12.07;5.50;;;10.70;99.90;;;;;;5116985;27;21240;-75
2023/05/25 01:55:56;;;;;;;16.63;6.90;;;10.70;99.90;;;;;;5094921;28;20444;-75
2023/05/25 01:58:23;;;;;;;17.90;6.50;;;10.60;99.90;;;;;;5104915;28;20409;-75
2023/05/25 02:00:50;;;;;;;14.70;6.38;;;10.70;99.90;;;;;;5105375;28;20412;-75
2023/05/25 02:03:16;;;;;;;17.13;6.95;;;10.70;99.90;;;;;;5088787;28;20419;-75
2023/05/25 02:05:42;;;;;;;18.98;7.28;;;10.70;99.90;;;;;;5106787;28;20424;-75
2023/05/25 02:08:08;;;;;;;13.77;6.15;;;10.60;99.90;;;;;;5105245;28;20448;-74
2023/05/25 02:10:34;;;;;;;13.95;6.53;;;10.60;99.90;;;;;;5103960;28;20925;-75
2023/05/25 02:12:59;;;;;;;17.07;7.23;;;10.60;99.90;;;;;;5099949;28;20469;-74
2023/05/25 02:15:30;;;;;;;14.68;6.75;;;10.50;99.90;;;;;;5106532;28;21142;-74
2023/05/25 02:17:56;;;;;;;16.60;6.38;;;10.50;99.90;;;;;;5106950;28;20400;-75
2023/05/25 02:20:22;;;;;;;18.42;7.60;;;10.50;99.90;;;;;;5106104;28;20800;-75
2023/05/25 02:22:48;;;;;;;15.77;7.13;;;10.40;99.90;;;;;;5105940;28;20416;-75
2023/05/25 02:25:13;;;;;;;20.52;7.65;;;10.40;99.90;;;;;;5106863;28;20476;-75
2023/05/25 02:27:39;;;;;;;15.43;6.77;;;10.40;99.90;;;;;;5107442;28;20435;-75
2023/05/25 02:30:07;;;;;;;17.35;7.15;;;10.30;99.90;;;;;;5106181;28;20417;-75
2023/05/25 02:32:34;;;;;;;13.75;6.80;;;10.30;99.90;;;;;;5103816;28;20521;-74
2023/05/25 02:34:59;;;;;;;13.07;6.70;;;10.30;99.90;;;;;;5094530;28;20741;-75
2023/05/25 02:37:25;;;;;;;19.35;7.70;;;10.30;99.90;;;;;;5113504;28;20457;-75
2023/05/25 02:39:51;;;;;;;15.10;6.68;;;10.30;99.90;;;;;;5104623;28;20392;-75
2023/05/25 02:42:17;;;;;;;15.57;6.67;;;10.30;99.90;;;;;;5105381;28;20468;-75
2023/05/25 02:44:47;;;;;;;12.73;6.93;;;10.30;99.90;;;;;;5104651;28;20435;-74
2023/05/25 02:47:14;;;;;;;14.43;6.85;;;10.20;99.90;;;;;;5105693;28;20420;-75
2023/05/25 02:49:40;;;;;;;14.48;7.05;;;10.20;99.90;;;;;;5118429;27;20406;-75
2023/05/25 02:52:05;;;;;;;15.63;7.43;;;10.20;99.90;;;;;;5105967;27;20892;-75
2023/05/25 02:54:31;;;;;;;14.80;6.93;;;10.20;99.90;;;;;;5108408;28;20400;-75
2023/05/25 02:56:57;;;;;;;17.33;7.38;;;10.20;99.90;;;;;;5109601;27;20412;-75
2023/05/25 02:59:23;;;;;;;14.93;7.30;;;10.20;99.90;;;;;;5091485;28;20420;-75
2023/05/25 03:01:49;;;;;;;16.90;7.05;;;10.20;99.90;;;;;;5109362;28;20479;-74
2023/05/25 03:04:15;;;;;;;12.03;6.57;;;10.20;99.90;;;;;;5096232;28;20519;-75
2023/05/25 03:06:40;;;;;;;15.73;6.18;;;10.20;99.90;;;;;;5092265;28;20477;-75
2023/05/25 03:09:07;;;;;;;17.20;6.97;;;10.10;99.90;;;;;;5113583;27;20403;-75
2023/05/25 03:11:33;;;;;;;18.75;7.18;;;10.10;99.90;;;;;;5113342;27;20491;-75
2023/05/25 03:13:58;;;;;;;14.47;6.43;;;10.10;99.90;;;;;;5116703;27;20540;-75
2023/05/25 03:16:24;;;;;;;15.35;6.20;;;10.10;99.90;;;;;;5113075;27;20400;-75
2023/05/25 03:18:50;;;;;;;12.00;6.25;;;10.10;99.90;;;;;;5109710;28;20488;-75
2023/05/25 03:21:16;;;;;;;15.50;6.83;;;10.00;99.90;;;;;;5113407;27;20541;-75
2023/05/25 03:23:41;;;;;;;14.88;7.40;;;10.00;99.90;;;;;;5110255;28;20785;-75
2023/05/25 03:26:07;;;;;;;14.73;7.10;;;10.00;99.90;;;;;;5113119;27;21107;-75
2023/05/25 03:28:32;;;;;;;14.48;7.35;;;10.00;99.90;;;;;;5110851;27;20451;-75
2023/05/25 03:30:58;;;;;;;14.73;6.70;;;10.00;99.90;;;;;;5112751;27;20811;-75
2023/05/25 03:33:24;;;;;;;15.47;6.87;;;10.00;99.90;;;;;;5113311;27;20408;-75
2023/05/25 03:35:49;;;;;;;13.95;6.30;;;10.00;99.90;;;;;;5113498;27;20396;-75
2023/05/25 03:38:15;;;;;;;13.20;6.83;;;10.00;99.90;;;;;;5099693;27;20532;-75
2023/05/25 03:40:41;;;;;;;16.95;6.80;;;10.10;99.90;;;;;;5114350;27;20400;-75
2023/05/25 03:43:06;;;;;;;13.37;6.30;;;10.10;99.90;;;;;;5119372;27;20395;-75
2023/05/25 03:45:32;;;;;;;16.60;6.30;;;10.10;99.90;;;;;;5116914;27;20536;-75
2023/05/25 03:47:57;;;;;;;16.20;6.77;;;10.20;99.90;;;;;;5119427;27;20407;-74
2023/05/25 03:50:23;;;;;;;15.52;6.20;;;10.30;99.90;;;;;;5115568;27;20396;-75
2023/05/25 03:52:49;;;;;;;16.63;6.53;;;10.30;99.90;;;;;;5110239;27;20426;-75
2023/05/25 03:55:14;;;;;;;13.57;6.32;;;10.40;99.90;;;;;;5114501;27;20399;-75
2023/05/25 03:57:40;;;;;;;13.48;6.53;;;10.40;99.90;;;;;;5122358;27;20410;-74
2023/05/25 04:00:08;;;;;;;18.10;6.43;;;10.40;99.90;;;;;;5115856;27;20392;-74
2023/05/25 04:02:35;;;;;;;19.33;6.90;;;10.50;99.90;;;;;;5121108;27;20411;-74
2023/05/25 04:05:01;;;;;;;15.38;6.47;;;10.60;99.90;;;;;;5116674;27;20428;-74
2023/05/25 04:07:28;;;;;;;16.07;6.60;;;10.60;99.90;;;;;;5115490;27;20407;-74
2023/05/25 04:09:56;;;;;;;16.92;6.43;;;10.60;99.90;;;;;;5103009;27;20402;-75
2023/05/25 04:12:22;;;;;;;14.00;6.88;;;10.70;99.90;;;;;;5113437;27;20479;-74
2023/05/25 04:14:48;;;;;;;15.95;6.82;;;10.70;99.90;;;;;;5112926;27;20831;-74
2023/05/25 04:17:13;;;;;;;16.43;6.53;;;10.70;99.90;;;;;;5107480;27;20477;-75
2023/05/25 04:19:39;;;;;;;17.33;6.82;;;10.80;99.90;;;;;;5112585;27;20404;-75
2023/05/25 04:22:04;;;;;;;14.87;6.47;;;10.80;99.90;;;;;;5115982;27;20432;-74
2023/05/25 04:24:31;;;;;;;16.20;6.30;;;10.80;99.90;;;;;;5111561;27;20798;-75
2023/05/25 04:26:57;;;;;;;20.08;7.18;;;10.90;99.90;;;;;;5116451;27;20402;-75
2023/05/25 04:29:22;;;;;;;16.52;7.30;;;10.90;99.90;;;;;;5112335;27;20468;-75
2023/05/25 04:31:48;;;;;;;17.40;6.70;;;11.00;99.90;;;;;;5116834;27;20395;-75
2023/05/25 04:34:14;;;;;;;15.10;6.32;;;11.00;99.90;;;;;;5103466;27;20981;-74
2023/05/25 04:36:41;;;;;;;17.47;6.80;;;11.10;99.90;;;;;;5094905;28;20443;-75
2023/05/25 04:39:07;;;;;;;15.20;5.93;;;11.10;99.90;;;;;;5082256;28;20410;-74
2023/05/25 04:41:34;;;;;;;15.77;6.47;;;11.20;99.90;;;;;;5108896;28;20400;-75
2023/05/25 04:44:00;;;;;;;16.35;6.28;;;11.20;99.90;;;;;;5112144;27;20432;-74
2023/05/25 04:46:25;;;;;;;16.67;5.90;;;11.30;99.90;;;;;;5117950;27;20402;-75
2023/05/25 04:48:51;;;;;;;14.17;5.80;;;11.40;99.90;;;;;;5112818;27;20443;-74
2023/05/25 04:51:16;;;;;;;16.55;5.40;;;11.40;99.90;;;;;;5108674;28;20913;-75
2023/05/25 04:53:42;;;;;;;13.33;5.17;;;11.50;99.90;;;;;;5107731;28;20411;-75
2023/05/25 04:56:08;;;;;;;14.88;5.22;;;11.50;99.90;;;;;;5108034;28;20911;-75
2023/05/25 04:58:33;;;;;;;16.05;5.50;;;11.60;99.90;;;;;;5107978;28;20400;-75
2023/05/25 05:00:59;;;;;;;15.20;5.00;;;11.70;99.90;;;;;;5107662;28;20404;-75
2023/05/25 05:03:25;;;;;;;12.48;4.50;;;11.70;99.90;;;;;;5107888;28;20408;-75
2023/05/25 05:05:51;;;;;;;14.40;4.85;;;11.70;99.90;;;;;;5117048;27;20403;-75
2023/05/25 05:08:16;;;;;;;11.90;4.53;;;11.80;99.90;;;;;;5101663;27;20404;-75
2023/05/25 05:10:42;;;;;;;12.40;4.95;;;11.80;99.90;;;;;;5108799;27;20738;-75
2023/05/25 05:13:10;;;;;;;12.63;4.10;;;11.80;99.90;;;;;;5100392;28;20440;-75
2023/05/25 05:15:35;;;;;;;10.40;4.30;;;11.80;99.90;;;;;;5107537;27;20462;-74
2023/05/25 05:18:01;;;;;;;11.20;3.60;;;11.80;99.90;;;;;;5107229;27;20401;-75
2023/05/25 05:20:26;;;;;;;13.80;3.58;;;11.90;99.90;;;;;;5112652;27;20410;-75
2023/05/25 05:22:53;;;;;;;15.40;3.30;;;12.00;99.90;;;;;;5107231;27;20502;-72
2023/05/25 05:25:18;;;;;;;11.40;2.83;;;12.10;99.90;;;;;;5088097;28;20732;-72
2023/05/25 05:27:44;;;;;;;11.50;3.00;;;12.20;99.90;;;;;;5098680;28;20461;-73
2023/05/25 05:30:10;;;;;;;11.83;3.10;;;12.30;99.90;;;;;;5099961;28;20404;-74
2023/05/25 05:32:35;;;;;;;12.88;2.80;;;12.30;99.90;;;;;;5100842;28;20983;-75
2023/05/25 05:35:01;;;;;;;12.55;3.47;;;12.40;99.90;;;;;;5097144;28;20483;-75
2023/05/25 05:37:27;;;;;;;13.93;3.20;;;12.40;99.90;;;;;;5111487;28;20460;-75
2023/05/25 05:39:52;;;;;;;13.90;3.30;;;12.50;99.90;;;;;;5114852;28;20394;-75
2023/05/25 05:42:18;;;;;;;11.27;3.00;;;12.50;99.90;;;;;;5109551;28;20400;-75
2023/05/25 05:44:44;;;;;;;12.30;3.28;;;12.50;99.90;;;;;;5107451;28;20507;-75
2023/05/25 05:47:09;;;;;;;12.63;3.37;;;12.60;99.90;;;;;;5106629;28;20488;-75
2023/05/25 05:49:37;;;;;;;13.73;3.70;;;12.70;99.90;;;;;;5107668;28;20774;-75
2023/05/25 05:52:02;;;;;;;15.85;3.33;;;12.70;99.90;;;;;;5118691;28;20501;-75
2023/05/25 05:54:28;;;;;;;14.57;3.78;;;12.70;99.90;;;;;;5113222;28;20396;-75
2023/05/25 05:56:54;;;;;;;13.70;2.93;;;12.80;99.90;;;;;;5118102;28;20396;-75
2023/05/25 05:59:21;;;;;;;15.25;3.72;;;12.80;99.90;;;;;;5117157;28;20411;-75
2023/05/25 06:01:46;;;;;;;17.70;3.75;;;12.80;99.90;;;;;;5107216;28;20866;-75
2023/05/25 06:04:12;;;;;;;18.73;3.95;;;12.90;99.90;;;;;;5116400;27;20489;-75
2023/05/25 06:06:39;;;;;;;13.43;2.80;;;12.90;99.90;;;;;;5107645;28;20408;-75
2023/05/25 06:09:05;;;;;;;18.47;3.40;;;12.90;99.90;;;;;;5110944;28;20457;-75
2023/05/25 06:11:36;;;;;;;16.92;3.65;;;13.00;99.90;;;;;;5106610;28;20411;-75
2023/05/25 06:14:02;;;;;;;18.75;3.53;;;12.90;99.90;;;;;;5102502;28;20458;-75
2023/05/25 06:16:28;;;;;;;16.25;4.07;;;13.00;99.90;;;;;;5105992;28;20408;-75
2023/05/25 06:18:54;;;;;;;14.20;3.87;;;13.00;99.90;;;;;;5107252;28;20412;-76
2023/05/25 06:21:20;;;;;;;18.08;4.18;;;13.00;99.90;;;;;;5108655;28;20545;-75
2023/05/25 06:23:47;;;;;;;15.23;3.65;;;13.10;99.90;;;;;;5110543;28;20413;-75
2023/05/25 06:26:13;;;;;;;16.38;4.00;;;13.10;99.90;;;;;;5088458;28;20413;-75
2023/05/25 06:28:38;;;;;;;16.05;3.55;;;13.20;99.90;;;;;;5110619;27;20412;-75
2023/05/25 06:31:04;;;;;;;17.07;3.73;;;13.20;99.90;;;;;;5111010;27;20766;-76
2023/05/25 06:33:30;;;;;;;17.67;4.15;;;13.30;99.90;;;;;;5107926;27;20836;-75
2023/05/25 06:35:59;;;;;;;14.15;3.78;;;13.30;99.90;;;;;;5105004;27;20400;-75
2023/05/25 06:38:25;;;;;;;15.38;4.20;;;13.20;99.90;;;;;;5093129;28;20431;-75
2023/05/25 06:40:51;;;;;;;22.15;4.72;;;13.20;99.90;;;;;;5111600;27;20434;-75
2023/05/25 06:43:17;;;;;;;17.00;3.90;;;13.20;99.90;;;;;;5109511;27;20407;-75
2023/05/25 06:45:42;;;;;;;18.77;4.50;;;13.30;99.90;;;;;;5110484;27;20515;-75
2023/05/25 06:48:08;;;;;;;17.85;4.35;;;13.30;99.90;;;;;;5111838;27;20388;-75
2023/05/25 06:50:34;;;;;;;17.27;4.33;;;13.20;99.90;;;;;;5110751;27;20400;-75
2023/05/25 06:52:59;;;;;;;19.40;4.50;;;13.20;99.90;;;;;;5111330;27;20401;-75
2023/05/25 06:55:25;;;;;;;22.27;4.30;;;13.30;99.90;;;;;;5109479;27;20397;-75
2023/05/25 06:57:51;;;;;;;20.73;4.43;;;13.30;99.90;;;;;;5110462;28;20431;-75
2023/05/25 07:00:17;;;;;;;17.27;4.40;;;13.30;99.90;;;;;;5109809;27;20408;-75
2023/05/25 07:02:43;;;;;;;19.05;4.03;;;13.40;99.90;;;;;;5109797;28;20470;-75
2023/05/25 07:05:08;;;;;;;19.63;4.37;;;13.50;99.90;;;;;;5115929;27;20432;-75
2023/05/25 07:07:34;;;;;;;19.73;4.25;;;13.60;99.90;;;;;;5109164;27;20812;-75
2023/05/25 07:10:02;;;;;;;20.90;4.53;;;13.70;99.90;;;;;;5110791;28;20472;-76
2023/05/25 07:12:27;;;;;;;22.17;4.63;;;13.80;99.90;;;;;;5109639;27;20401;-75
2023/05/25 07:14:53;;;;;;;22.07;4.30;;;13.80;99.90;;;;;;5110008;27;20402;-75
2023/05/25 07:17:19;;;;;;;19.65;4.15;;;13.90;99.90;;;;;;5109835;27;20758;-75
2023/05/25 07:19:44;;;;;;;18.77;4.40;;;14.00;99.90;;;;;;5092968;27;20396;-75
2023/05/25 07:22:10;;;;;;;20.55;4.95;;;14.00;99.90;;;;;;5116346;27;20424;-75
2023/05/25 07:24:36;;;;;;;17.40;4.10;;;14.00;99.90;;;;;;5109669;27;20413;-75
2023/05/25 07:27:02;;;;;;;21.45;5.13;;;14.00;99.90;;;;;;5117470;27;20424;-76
2023/05/25 07:29:28;;;;;;;22.33;4.70;;;13.90;99.90;;;;;;5115106;27;20503;-75
2023/05/25 07:31:53;;;;;;;20.98;4.95;;;13.80;99.90;;;;;;5118387;27;20486;-75
2023/05/25 07:34:19;;;;;;;22.00;4.90;;;13.80;99.90;;;;;;5114142;27;20491;-75
2023/05/25 07:36:45;;;;;;;18.02;4.55;;;13.60;99.90;;;;;;5118609;27;20406;-75
2023/05/25 07:39:11;;;;;;;23.85;4.68;;;13.50;99.90;;;;;;5108488;27;20985;-75
2023/05/25 07:41:37;;;;;;;22.80;4.87;;;13.40;99.90;;;;;;5122825;27;20734;-76
2023/05/25 07:44:03;;;;;;;24.27;4.88;;;13.40;99.90;;;;;;5116390;27;20507;-75
2023/05/25 07:46:29;;;;;;;25.83;5.37;;;13.40;99.90;;;;;;5121408;27;20415;-75
2023/05/25 07:48:57;;;;;;;21.85;5.05;;;13.30;99.90;;;;;;5115689;27;20405;-75
2023/05/25 07:51:25;;;;;;;20.48;4.32;;;13.30;99.90;;;;;;5097000;28;20400;-76
2023/05/25 07:53:52;;;;;;;20.25;4.80;;;13.30;99.90;;;;;;5112495;27;20433;-75
2023/05/25 07:56:18;;;;;;;23.08;4.97;;;13.30;99.90;;;;;;5123046;27;20403;-75
2023/05/25 07:58:44;;;;;;;21.83;4.78;;;13.40;99.90;;;;;;5118996;27;20407;-75
2023/05/25 08:01:09;;;;;;;24.47;4.60;;;13.50;99.90;;;;;;5113839;27;20483;-75
2023/05/25 08:03:35;;;;;;;20.88;4.45;;;13.60;99.90;;;;;;5110068;27;20449;-75
2023/05/25 08:06:01;;;;;;;20.97;4.67;;;13.70;99.90;;;;;;5110146;28;20996;-75
2023/05/25 08:08:26;;;;;;;20.17;4.35;;;13.80;99.90;;;;;;5109454;27;20750;-74
2023/05/25 08:10:52;;;;;;;17.77;4.30;;;13.90;99.90;;;;;;5102150;27;20397;-75
2023/05/25 08:13:18;;;;;;;21.27;5.38;;;14.00;99.90;;;;;;5112493;27;20476;-75
2023/05/25 08:15:43;;;;;;;19.40;4.30;;;14.00;99.90;;;;;;5112514;27;21309;-75
2023/05/25 08:18:09;;;;;;;19.90;4.63;;;14.00;99.90;;;;;;5091370;28;20440;-75
2023/05/25 08:20:35;;;;;;;19.00;4.23;;;14.00;99.90;;;;;;5113730;27;20484;-74
2023/05/25 08:23:01;;;;;;;25.98;4.68;;;14.10;99.90;;;;;;5113099;27;20763;-75
2023/05/25 08:25:26;;;;;;;20.90;5.22;;;14.20;99.90;;;;;;5116459;27;20448;-75
2023/05/25 08:27:52;;;;;;;28.00;5.80;;;14.20;99.90;;;;;;5115419;27;20453;-74
2023/05/25 08:30:18;;;;;;;21.77;4.95;;;14.30;99.90;;;;;;5112277;27;20400;-75
2023/05/25 08:32:44;;;;;;;20.47;4.03;;;14.30;99.90;;;;;;5096245;27;20412;-75
2023/05/25 08:35:09;;;;;;;21.00;4.28;;;14.40;99.90;;;;;;5113304;27;20400;-75
2023/05/25 08:37:35;;;;;;;17.95;4.55;;;14.50;99.90;;;;;;5107778;28;20895;-75
2023/05/25 08:40:01;;;;;;;19.03;4.83;;;14.60;99.90;;;;;;5107603;28;20404;-75
2023/05/25 08:42:28;;;;;;;21.13;4.50;;;14.70;99.90;;;;;;5114537;27;20397;-75
2023/05/25 08:44:53;;;;;;;22.70;5.20;;;14.90;99.90;;;;;;5111576;27;20428;-75
2023/05/25 08:47:22;;;;;;;21.27;4.70;;;14.80;99.90;;;;;;5105671;27;20413;-76
2023/05/25 08:49:49;;;;;;;19.50;4.63;;;14.70;99.90;;;;;;5113088;27;20400;-75
2023/05/25 08:52:25;;;;;;;20.13;4.73;;;14.60;99.90;;;;;;5112739;27;20415;-75
2023/05/25 08:54:54;;;;;;;20.43;4.40;;;14.60;99.90;;;;;;5113105;27;20481;-74
2023/05/25 08:57:25;;;;;;;18.02;4.20;;;14.70;99.90;;;;;;5114452;27;20415;-75
2023/05/25 09:00:09;;;;;;;18.35;4.38;;;15.00;99.90;;;;;;5114696;27;20400;-75
2023/05/25 09:02:47;;;;;;;17.08;3.97;;;15.30;99.90;;;;;;5117556;27;20414;-75
2023/05/25 09:05:14;;;;;;;20.23;4.28;;;15.40;99.90;;;;;;5111731;27;20427;-75
2023/05/25 09:07:42;;;;;;;21.35;4.63;;;15.40;99.90;;;;;;5108453;28;20392;-75
2023/05/25 09:10:10;;;;;;;20.10;4.25;;;15.50;99.90;;;;;;5107680;28;20409;-75
2023/05/25 09:12:37;;;;;;;17.67;4.60;;;15.50;99.90;;;;;;5108453;28;20404;-75
2023/05/25 09:15:03;;;;;;;20.77;4.90;;;15.40;99.90;;;;;;5107172;28;21321;-75
2023/05/25 09:17:30;;;;;;;18.48;4.05;;;15.20;99.90;;;;;;5107025;27;20397;-75
2023/05/25 09:19:56;;;;;;;15.70;4.32;;;15.30;99.90;;;;;;5109067;27;20409;-75
2023/05/25 09:22:21;;;;;;;17.98;4.10;;;15.40;99.90;;;;;;5109837;27;20401;-75
2023/05/25 09:24:47;;;;;;;20.53;4.40;;;15.50;99.90;;;;;;5106465;28;20798;-75
2023/05/25 09:27:18;;;;;;;17.63;4.57;;;15.80;99.90;;;;;;5106609;28;20532;-75
2023/05/25 09:29:46;;;;;;;16.10;4.20;;;16.20;99.90;;;;;;5108300;28;21022;-76
2023/05/25 09:32:12;;;;;;;15.75;4.35;;;16.50;99.90;;;;;;5108029;27;20400;-75
2023/05/25 09:34:38;;;;;;;21.95;4.65;;;16.70;99.90;;;;;;5107510;28;21119;-75
2023/05/25 09:37:17;;;;;;;25.48;4.97;;;16.60;99.90;;;;;;5107283;28;20436;-75
2023/05/25 09:39:43;;;;;;;22.95;4.93;;;16.50;99.90;;;;;;5101004;28;20753;-75
2023/05/25 09:42:10;;;;;;;20.02;4.72;;;16.40;99.90;;;;;;5108593;28;20398;-75
2023/05/25 09:44:36;;;;;;;21.03;4.37;;;16.30;99.90;;;;;;5108918;28;20428;-77
2023/05/25 09:47:02;;;;;;;22.63;4.57;;;16.40;99.90;;;;;;5108592;28;20403;-75
2023/05/25 09:49:28;;;;;;;17.70;5.00;;;16.80;99.90;;;;;;5109490;28;20401;-75
2023/05/25 09:51:55;;;;;;;19.92;4.35;;;17.30;99.90;;;;;;5113712;28;20400;-75
2023/05/25 09:54:24;;;;;;;18.63;4.38;;;17.70;99.90;;;;;;5103053;28;20408;-75
2023/05/25 09:56:50;;;;;;;;;;;17.90;99.90;;;;;;5109987;28;20390;-76
2023/05/25 09:59:15;;;;;;;;;;;17.90;99.90;;;;;;5112473;27;19920;-75
2023/05/25 10:01:43;;;;;;;;;;;17.90;99.90;;;;;;5113668;27;19973;-76
2023/05/25 10:04:08;;;;;;;;;;;17.90;99.90;;;;;;5113696;27;19924;-75
2023/05/25 10:06:34;;;;;;;;;;;18.00;99.90;;;;;;5106784;28;19962;-76
2023/05/25 10:09:00;;;;;;;;;;;17.80;99.90;;;;;;5113196;27;21184;-75
2023/05/25 10:11:26;;;;;;;;;;;17.50;99.90;;;;;;5113221;27;19924;-75
2023/05/25 10:13:52;;;;;;;;;;;17.40;99.90;;;;;;5112815;27;19920;-75
2023/05/25 10:16:20;;;;;;;;;;;17.90;99.90;;;;;;5113781;27;19928;-76
2023/05/25 10:18:48;;;;;;;;;;;18.30;99.90;;;;;;5122104;27;19994;-76
2023/05/25 10:21:15;;;;;;;;;;;18.40;99.90;;;;;;5113565;28;20010;-75
2023/05/25 10:23:44;;;;;;;;;;;18.30;99.90;;;;;;5116839;27;19927;-75
2023/05/25 10:26:12;;;;;;;;;;;18.10;99.90;;;;;;5113170;28;19920;-75
2023/05/25 10:28:38;;;;;;;;;;;17.80;99.90;;;;;;5111940;28;19924;-75
2023/05/25 10:31:05;;;;;;;;;;;17.50;99.90;;;;;;5113673;27;20398;-75
2023/05/25 10:33:31;;;;;;;;;;;17.20;99.90;;;;;;5112290;28;19919;-75
2023/05/25 10:35:57;;;;;;;;;;;16.90;99.90;;;;;;5111664;27;20270;-75
2023/05/25 10:38:25;;;;;;;;;;;16.70;99.90;;;;;;5112371;28;19931;-74
2023/05/25 10:40:51;;;;;;;;;;;16.60;99.90;;;;;;5140292;27;20003;-75
2023/05/25 10:43:18;;;;;;;;;;;16.60;99.90;;;;;;5113033;28;19919;-75
2023/05/25 10:45:43;;;;;;;;;;;16.70;99.90;;;;;;5111488;28;20454;-75
2023/05/25 10:48:09;;;;;;;;;;;17.00;99.90;;;;;;5100698;27;19923;-75
2023/05/25 10:50:35;;;;;;;;;;;17.40;99.90;;;;;;5113404;27;20361;-76
2023/05/25 10:53:00;;;;;;;;;;;17.90;99.90;;;;;;5113001;28;19933;-76
2023/05/25 10:55:30;;;;;;;;;;;18.30;99.90;;;;;;5112301;27;20293;-76
2023/05/25 10:58:15;;;;;;;;;;;18.30;99.90;;;;;;5112112;28;20267;-75
2023/05/25 11:00:41;;;;;;;;;;;18.30;99.90;;;;;;5138052;27;20300;-76
2023/05/25 11:03:07;;;;;;;;;;;18.20;99.90;;;;;;5118102;27;19923;-75
2023/05/25 11:05:33;;;;;;;;;;;18.00;99.90;;;;;;5123558;27;19926;-76
2023/05/25 11:08:11;;;;;;;;;;;18.00;99.90;;;;;;5095455;28;19923;-75
2023/05/25 11:10:48;;;;;;;;;;;18.00;99.90;;;;;;5112757;27;19919;-75
2023/05/25 11:13:32;;;;;;;;;;;18.40;99.90;;;;;;5112886;27;20010;-75
2023/05/25 11:16:06;;;;;;;;;;;18.60;99.90;;;;;;5112758;27;19965;-76
2023/05/25 11:18:40;;;;;;;;;;;18.50;99.90;;;;;;5101797;27;20011;-76
2023/05/25 11:21:17;;;;;;;;;;;18.40;99.90;;;;;;5102922;28;19920;-76
2023/05/25 11:23:56;;;;;;;;;;;18.40;99.60;;;;;;5105840;27;19934;-75
2023/05/25 11:26:22;;;;;;;;;;;18.50;99.90;;;;;;5113425;27;19965;-76
2023/05/25 11:28:49;;;;;;;;;;;18.70;99.80;;;;;;5119194;27;19931;-75
2023/05/25 11:31:16;;;;;;;;;;;18.70;99.70;;;;;;5116034;27;19919;-75
2023/05/25 11:33:43;;;;;;;;;;;18.60;98.70;;;;;;5116571;27;19941;-75
2023/05/25 11:36:10;;;;;;;;;;;18.50;98.50;;;;;;5116749;27;19931;-75
2023/05/25 11:38:40;;;;;;;;;;;18.30;98.20;;;;;;5117063;27;20377;-75
2023/05/25 11:41:15;;;;;;;;;;;18.30;98.70;;;;;;5116433;27;20064;-76
2023/05/25 11:43:45;;;;;;;;;;;18.30;98.80;;;;;;5115495;27;20389;-76
2023/05/25 11:46:11;;;;;;;;;;;18.40;99.10;;;;;;5101236;27;19982;-76
2023/05/25 11:48:41;;;;;;;;;;;18.50;98.40;;;;;;5116013;27;19926;-75
2023/05/25 11:51:06;;;;;;;;;;;18.60;97.90;;;;;;5115885;27;19920;-76
2023/05/25 11:53:32;;;;;;;;;;;18.70;96.80;;;;;;5141282;27;19919;-76
2023/05/25 11:55:58;;;;;;;;;;;18.80;97.60;;;;;;5118742;27;19935;-76
2023/05/25 11:58:23;;;;;;;;;;;19.00;97.00;;;;;;5098714;28;19927;-75
2023/05/25 12:00:49;;;;;;;13.43;3.50;;;19.30;96.70;;;;;;5120481;27;19919;-76
2023/05/25 12:03:33;;;;;;;20.33;4.27;;;19.60;96.60;;;;;;5120475;27;20432;-76
2023/05/25 12:05:58;;;;;;;14.82;3.88;;;19.90;95.90;;;;;;5106099;28;20420;-75
2023/05/25 12:08:35;;;;;;;16.47;4.10;;;20.30;95.70;;;;;;5108291;28;20927;-76
2023/05/25 12:11:01;;;;;;;16.92;3.53;;;20.60;94.20;;;;;;5109683;28;20901;-76
2023/05/25 12:13:27;;;;;;;;;;;20.80;93.00;;;;;;5116547;27;20048;-76
2023/05/25 12:15:59;;;;;;;;;;;21.00;92.20;;;;;;5109994;27;19926;-75
2023/05/25 12:18:27;;;;;;;;;;;21.10;91.50;;;;;;5119380;27;20022;-76
2023/05/25 12:20:54;;;;;;;;;;;20.80;91.00;;;;;;5117296;27;19927;-76
2023/05/25 12:23:20;;;;;;;;;;;20.60;90.50;;;;;;5117869;27;19919;-76
2023/05/25 12:25:46;;;;;;;;;;;20.40;89.30;;;;;;5116394;27;19927;-76
2023/05/25 12:28:13;;;;;;;;;;;20.20;90.50;;;;;;5117966;27;19969;-76
2023/05/25 12:30:39;;;;;;;;;;;20.00;92.10;;;;;;5117343;27;19919;-76
2023/05/25 12:33:06;;;;;;;;;;;20.10;91.90;;;;;;5116632;27;19927;-76
2023/05/25 12:35:44;;;;;;;;;;;20.20;91.90;;;;;;5112497;27;20006;-76
2023/05/25 12:38:10;;;;;;;;;;;20.00;91.60;;;;;;5102586;27;20002;-76
2023/05/25 12:40:36;;;;;;;;;;;19.90;90.60;;;;;;5117121;27;20659;-76
2023/05/25 12:43:02;;;;;;;;;;;19.90;91.90;;;;;;5120429;27;20010;-76
2023/05/25 12:45:27;;;;;;;;;;;19.80;91.50;;;;;;5110006;27;19927;-76
2023/05/25 12:47:53;;;;;;;;;;;19.70;92.10;;;;;;5120202;27;19919;-76
2023/05/25 12:50:18;;;;;;;;;;;19.50;90.80;;;;;;5109216;27;19919;-75
2023/05/25 12:52:45;;;;;;;;;;;19.30;91.70;;;;;;5119433;27;19919;-75
2023/05/25 12:55:40;;;;;;;;;;;19.30;92.50;;;;;;5115126;27;20293;-77
2023/05/25 12:58:06;;;;;;;;;;;19.10;92.20;;;;;;5101915;27;19923;-78